Time;durP1;ratioP1;P1;durP2;ratioP2;P2;SDS_P1;SDS_P2;PMS_P1;PMS_P2;Temp;Humidity;BMP_temperature;BMP_pressure;BME280_temperature;BME280_humidity;BME280_pressure;Samples;Min_cycle;Max_cycle;Signal;HPM_P1;HPM_P2
2022/02/20 00:01:39;;;;;;;6.07;2.00;;;2.50;58.10;;;1.29;41.45;94807.13;6104542;23;20231;-82
2022/02/20 00:04:08;;;;;;;5.63;1.80;;;2.50;58.40;;;1.32;42.37;94800.84;6105403;23;20209;-82
2022/02/20 00:06:35;;;;;;;5.30;1.77;;;2.50;58.50;;;1.34;41.89;94792.00;6129399;23;20196;-81
2022/02/20 00:09:03;;;;;;;7.38;1.83;;;2.50;58.70;;;1.35;42.10;94785.91;6105346;23;20185;-82
2022/02/20 00:11:31;;;;;;;2.67;1.42;;;2.50;58.80;;;1.41;41.80;94771.63;6105163;23;20232;-82
2022/02/20 00:13:58;;;;;;;2.50;1.80;;;2.50;58.90;;;1.42;42.17;94779.22;6105085;23;20605;-83
2022/02/20 00:16:27;;;;;;;2.15;1.50;;;2.50;59.00;;;1.48;42.30;94785.63;6129155;23;20197;-81
2022/02/20 00:18:54;;;;;;;2.42;1.80;;;2.50;59.20;;;1.55;42.30;94784.09;6105385;23;20177;-82
2022/02/20 00:21:21;;;;;;;4.05;1.80;;;2.50;59.20;;;1.62;42.89;94771.41;6153838;23;20687;-83
2022/02/20 00:23:49;;;;;;;3.85;1.92;;;2.60;59.60;;;1.73;42.69;94767.84;6105428;23;20207;-83
2022/02/20 00:26:17;;;;;;;5.20;1.95;;;2.70;59.80;;;1.79;42.83;94763.91;6104982;23;20584;-83
2022/02/20 00:28:44;;;;;;;3.58;1.80;;;2.70;59.90;;;1.89;42.99;94762.91;6105199;23;20169;-82
2022/02/20 00:31:11;;;;;;;6.13;2.10;;;2.80;60.00;;;2.01;42.94;94765.31;6129421;23;20224;-82
2022/02/20 00:33:39;;;;;;;3.10;1.45;;;2.80;60.10;;;2.08;42.92;94772.34;6104943;23;20178;-82
2022/02/20 00:36:06;;;;;;;3.85;1.77;;;2.90;60.00;;;2.10;43.53;94761.88;6129348;23;20201;-82
2022/02/20 00:38:34;;;;;;;4.95;1.80;;;3.00;60.20;;;2.20;43.00;94751.50;6081304;23;20260;-83
2022/02/20 00:41:01;;;;;;;3.30;1.70;;;3.00;60.20;;;2.34;43.58;94763.13;6105134;23;20272;-82
2022/02/20 00:43:28;;;;;;;2.63;1.50;;;3.10;60.40;;;2.44;43.58;94766.47;6105539;23;20483;-82
2022/02/20 00:45:55;;;;;;;5.20;1.88;;;3.20;60.60;;;2.51;43.65;94759.72;6104991;23;20201;-81
2022/02/20 00:48:23;;;;;;;4.10;1.73;;;3.30;60.70;;;2.66;43.31;94767.84;6153754;23;20244;-83
2022/02/20 00:50:50;;;;;;;7.55;1.90;;;3.40;60.70;;;2.76;43.26;94775.53;6104745;23;20220;-82
2022/02/20 00:53:17;;;;;;;3.20;1.85;;;3.50;60.80;;;2.84;43.32;94772.19;6129295;23;20169;-81
2022/02/20 00:55:45;;;;;;;3.70;2.28;;;3.50;60.70;;;2.86;43.56;94768.50;6129589;23;20213;-82
2022/02/20 00:58:13;;;;;;;2.85;1.60;;;3.60;60.70;;;2.95;43.45;94771.97;6155569;23;20518;-82
2022/02/20 01:00:41;;;;;;;3.47;1.90;;;3.70;60.60;;;3.01;43.77;94770.56;6130510;23;20193;-83
2022/02/20 01:03:09;;;;;;;2.15;1.60;;;3.80;60.80;;;3.08;43.45;94765.63;6130856;23;20189;-83
2022/02/20 01:05:36;;;;;;;4.78;2.08;;;3.80;60.70;;;3.11;43.75;94752.34;6155895;23;20199;-82
2022/02/20 01:08:05;;;;;;;5.40;1.83;;;3.90;60.80;;;3.14;43.64;94752.88;6106398;23;20197;-82
2022/02/20 01:10:33;;;;;;;5.40;1.80;;;3.90;60.80;;;3.20;43.80;94757.47;6107799;23;20192;-82
2022/02/20 01:13:01;;;;;;;4.80;1.70;;;4.00;60.80;;;3.20;43.70;94741.91;6131055;23;20173;-82
2022/02/20 01:15:28;;;;;;;5.68;2.22;;;4.00;60.80;;;3.27;43.63;94752.50;6155950;23;20189;-83
2022/02/20 01:17:57;;;;;;;4.13;1.70;;;4.10;60.70;;;3.30;43.73;94748.78;6106923;23;20177;-82
2022/02/20 01:20:26;;;;;;;3.85;1.90;;;4.10;60.80;;;3.34;43.40;94755.28;6131112;23;20196;-81
2022/02/20 01:22:54;;;;;;;3.63;1.70;;;4.20;60.80;;;3.36;43.95;94756.75;6106479;23;20177;-82
2022/02/20 01:25:21;;;;;;;5.53;2.20;;;4.20;60.90;;;3.39;43.98;94745.28;6106658;23;20220;-81
2022/02/20 01:27:49;;;;;;;4.90;1.80;;;4.20;60.80;;;3.40;43.69;94736.53;6082593;23;20200;-83
2022/02/20 01:30:16;;;;;;;5.63;1.95;;;4.20;60.80;;;3.40;43.56;94725.38;6106684;23;20252;-82
2022/02/20 01:32:43;;;;;;;3.85;1.80;;;4.30;60.90;;;3.47;43.44;94710.84;6106387;23;20174;-82
2022/02/20 01:35:15;;;;;;;5.35;2.03;;;4.30;60.90;;;3.48;43.82;94708.06;6083333;23;20229;-82
2022/02/20 01:37:44;;;;;;;4.70;1.67;;;4.30;60.90;;;3.49;43.81;94698.50;6131474;23;20557;-82
2022/02/20 01:40:13;;;;;;;4.00;1.80;;;4.30;60.90;;;3.49;43.95;94693.31;6106566;23;20569;-82
2022/02/20 01:42:40;;;;;;;2.83;1.80;;;4.30;60.90;;;3.45;43.87;94681.66;6130649;23;20177;-83
2022/02/20 01:45:17;;;;;;;5.45;1.65;;;4.40;60.90;;;3.52;44.27;94690.44;6106398;23;20779;-83
2022/02/20 01:47:44;;;;;;;3.13;1.85;;;4.40;61.40;;;3.53;44.30;94698.06;6106569;23;20270;-83
2022/02/20 01:50:15;;;;;;;3.33;1.90;;;4.40;61.00;;;3.58;44.36;94691.59;6106178;23;20199;-82
2022/02/20 01:52:47;;;;;;;5.35;1.85;;;4.40;61.00;;;3.62;44.32;94680.75;6107457;23;20177;-82
2022/02/20 01:55:15;;;;;;;3.60;1.80;;;4.40;61.00;;;3.65;44.01;94674.44;6106392;23;20201;-83
2022/02/20 01:58:02;;;;;;;2.40;1.67;;;4.40;60.90;;;3.62;44.17;94670.38;6114368;23;20181;-82
2022/02/20 02:00:55;;;;;;;5.13;1.83;;;4.50;61.00;;;3.63;43.93;94669.41;6093035;23;20197;-83
2022/02/20 02:03:48;;;;;;;3.97;1.80;;;4.50;60.90;;;3.63;43.64;94666.03;6113156;23;20548;-82
2022/02/20 02:06:32;;;;;;;2.78;1.55;;;4.50;60.90;;;3.57;43.64;94651.09;6130530;23;20431;-82
2022/02/20 02:09:02;;;;;;;4.03;1.70;;;4.60;61.00;;;3.64;43.92;94662.47;6106321;23;20177;-82
2022/02/20 02:11:55;;;;;;;5.38;1.80;;;4.50;60.90;;;3.64;43.88;94660.66;6111767;23;20205;-83
2022/02/20 02:14:56;;;;;;;5.07;1.90;;;4.50;60.90;;;3.65;44.06;94658.88;6130184;23;20197;-82
2022/02/20 02:17:44;;;;;;;2.40;1.60;;;4.60;61.60;;;3.67;44.08;94654.34;6135333;23;20173;-83
2022/02/20 02:20:27;;;;;;;2.65;1.50;;;4.60;61.00;;;3.65;44.09;94641.56;6109330;23;20200;-82
2022/02/20 02:23:17;;;;;;;4.03;1.80;;;4.60;61.10;;;3.75;44.46;94640.59;6089141;23;20179;-83
2022/02/20 02:25:57;;;;;;;3.10;1.67;;;4.60;62.10;;;3.81;44.21;94640.81;6108235;23;20209;-81
2022/02/20 02:28:42;;;;;;;3.35;1.60;;;4.70;61.30;;;3.87;44.19;94626.41;6134471;23;20212;-83
2022/02/20 02:31:16;;;;;;;3.67;1.60;;;4.70;61.20;;;3.92;44.14;94623.31;6130149;23;20564;-83
2022/02/20 02:33:45;;;;;;;4.00;1.70;;;4.70;61.30;;;4.00;44.25;94620.75;6130684;23;20212;-82
2022/02/20 02:36:13;;;;;;;3.83;1.77;;;4.70;61.20;;;4.08;45.04;94609.59;6129833;23;20272;-82
2022/02/20 02:38:41;;;;;;;4.57;1.50;;;4.80;61.50;;;4.16;44.97;94610.41;6105834;23;20182;-83
2022/02/20 02:41:13;;;;;;;5.40;1.85;;;4.80;61.50;;;4.27;44.41;94595.50;6106214;23;20248;-82
2022/02/20 02:43:42;;;;;;;2.78;1.67;;;4.90;61.50;;;4.33;44.81;94587.88;6105833;23;20236;-83
2022/02/20 02:46:10;;;;;;;7.38;1.90;;;5.00;61.70;;;4.44;45.21;94591.94;6105968;23;20284;-83
2022/02/20 02:48:48;;;;;;;4.22;1.67;;;5.10;61.90;;;4.56;44.74;94592.41;6129997;23;20268;-82
2022/02/20 02:51:18;;;;;;;3.63;1.70;;;5.20;62.00;;;4.62;45.09;94583.97;6129935;23;20193;-83
2022/02/20 02:53:46;;;;;;;4.38;1.80;;;5.20;61.90;;;4.76;44.73;94576.50;6130441;23;20273;-83
2022/02/20 02:56:13;;;;;;;3.85;1.70;;;5.30;61.90;;;4.81;44.69;94574.25;6129959;23;20201;-82
2022/02/20 02:58:42;;;;;;;6.10;2.13;;;5.40;61.90;;;4.91;44.72;94577.47;6105458;23;20177;-81
2022/02/20 03:01:12;;;;;;;6.10;2.10;;;5.40;61.80;;;4.99;45.17;94571.44;6083094;23;20190;-83
2022/02/20 03:03:39;;;;;;;4.40;1.95;;;5.50;61.90;;;5.06;45.36;94575.00;6154140;23;20608;-83
2022/02/20 03:06:13;;;;;;;5.82;2.35;;;5.60;62.00;;;5.15;45.53;94582.78;6105036;23;20213;-82
2022/02/20 03:08:41;;;;;;;7.25;2.10;;;5.70;62.50;;;5.25;45.31;94589.41;6105346;23;20185;-83
2022/02/20 03:11:09;;;;;;;2.70;1.83;;;5.80;62.20;;;5.35;45.29;94572.81;6081865;23;20204;-82
2022/02/20 03:13:38;;;;;;;4.85;2.10;;;5.90;62.30;;;5.45;45.55;94586.44;6105355;23;20181;-82
2022/02/20 03:16:11;;;;;;;4.75;1.77;;;5.90;62.40;;;5.53;45.82;94588.19;6129667;23;20203;-82
2022/02/20 03:18:42;;;;;;;4.07;2.00;;;6.00;62.30;;;5.60;45.44;94579.56;6106220;23;20204;-81
2022/02/20 03:21:17;;;;;;;3.75;1.90;;;6.10;62.30;;;5.64;45.71;94574.81;6106591;23;20882;-82
2022/02/20 03:23:44;;;;;;;4.13;2.10;;;6.20;62.40;;;5.72;45.45;94592.97;6129438;23;20188;-82
2022/02/20 03:26:12;;;;;;;7.30;2.63;;;6.20;62.40;;;5.77;46.16;94579.47;6105303;23;20287;-82
2022/02/20 03:28:39;;;;;;;5.15;2.00;;;6.30;62.70;;;5.81;45.62;94598.16;6105353;23;20181;-82
2022/02/20 03:31:08;;;;;;;4.90;1.92;;;6.30;62.50;;;5.85;45.87;94591.66;6105850;23;20244;-82
2022/02/20 03:33:36;;;;;;;5.22;1.83;;;6.40;62.70;;;5.88;45.77;94607.72;6129683;23;20617;-82
2022/02/20 03:36:05;;;;;;;2.25;1.63;;;6.40;62.50;;;5.85;45.84;94591.66;6105780;23;20205;-82
2022/02/20 03:38:33;;;;;;;3.85;1.83;;;6.50;62.40;;;5.94;45.19;94598.41;6105375;23;20265;-83
2022/02/20 03:41:01;;;;;;;2.72;1.60;;;6.50;62.30;;;5.98;45.29;94598.88;6129228;23;20248;-82
2022/02/20 03:43:37;;;;;;;2.97;1.83;;;6.60;62.20;;;5.99;45.08;94616.97;6084268;23;20173;-82
2022/02/20 03:46:04;;;;;;;6.43;2.08;;;6.60;62.10;;;5.98;45.63;94599.72;6129520;23;20197;-82
2022/02/20 03:48:41;;;;;;;4.15;1.70;;;6.60;62.30;;;5.97;46.05;94616.31;6106920;23;20184;-82
2022/02/20 03:51:33;;;;;;;2.92;1.65;;;6.60;62.50;;;5.99;45.40;94603.13;6094020;23;20567;-82
2022/02/20 03:54:02;;;;;;;3.15;1.60;;;6.70;62.40;;;6.00;45.99;94631.59;6105013;23;20208;-82
2022/02/20 03:56:29;;;;;;;3.85;1.70;;;6.70;62.50;;;5.99;46.10;94632.56;6129570;23;20177;-83
2022/02/20 03:59:03;;;;;;;2.25;1.70;;;6.70;62.50;;;5.98;46.59;94624.91;6105878;23;20628;-82
2022/02/20 04:01:30;;;;;;;3.63;1.63;;;6.70;63.00;;;5.92;47.92;94621.22;6155202;23;20544;-82
2022/02/20 04:03:59;;;;;;;4.50;2.30;;;6.70;63.40;;;5.80;50.09;94644.19;6105327;23;20177;-83
2022/02/20 04:06:27;;;;;;;3.35;2.00;;;6.60;64.70;;;5.72;49.56;94631.22;6128782;23;20215;-81
2022/02/20 04:09:01;;;;;;;1.80;1.60;;;6.60;64.40;;;5.68;48.60;94635.13;6153700;23;20181;-83
2022/02/20 04:11:29;;;;;;;3.40;1.75;;;6.50;64.00;;;5.62;49.49;94628.81;6105590;23;20181;-81
2022/02/20 04:14:02;;;;;;;3.60;2.17;;;6.50;64.30;;;5.52;51.37;94649.00;6106045;23;20640;-82
2022/02/20 04:16:39;;;;;;;4.15;1.90;;;6.50;65.50;;;5.38;51.06;94647.91;6107241;23;20173;-81
2022/02/20 04:19:07;;;;;;;2.50;2.00;;;6.40;65.20;;;5.19;53.05;94623.88;6105111;23;20178;-81
2022/02/20 04:21:36;;;;;;;3.60;1.90;;;6.20;65.80;;;5.04;53.64;94635.91;6106002;23;20174;-82
2022/02/20 04:24:09;;;;;;;3.63;2.03;;;6.10;66.50;;;4.93;53.70;94655.25;6128641;23;20492;-81
2022/02/20 04:26:36;;;;;;;4.80;2.10;;;6.00;66.40;;;4.80;54.90;94659.16;6081011;23;20196;-82
2022/02/20 04:29:03;;;;;;;3.42;1.90;;;5.90;67.00;;;4.68;54.43;94636.28;6081202;23;20181;-82
2022/02/20 04:31:33;;;;;;;2.88;1.98;;;5.80;66.90;;;4.67;53.19;94645.03;6105926;23;20185;-81
2022/02/20 04:34:04;;;;;;;4.50;1.83;;;5.70;66.50;;;4.61;55.04;94649.09;6107775;23;20180;-81
2022/02/20 04:36:37;;;;;;;2.15;1.65;;;5.60;68.00;;;4.56;54.90;94640.97;6106913;23;20178;-82
2022/02/20 04:39:11;;;;;;;3.42;1.70;;;5.60;67.50;;;4.53;53.90;94642.09;6107660;23;20300;-82
2022/02/20 04:41:43;;;;;;;3.13;1.73;;;5.50;67.30;;;4.48;55.59;94619.22;6107570;23;20192;-81
2022/02/20 04:44:18;;;;;;;3.92;2.00;;;5.60;68.00;;;4.46;57.24;94635.94;6108243;23;20204;-82
2022/02/20 04:46:46;;;;;;;3.22;1.85;;;5.40;68.50;;;4.48;55.90;94623.59;6107017;23;20332;-82
2022/02/20 04:49:14;;;;;;;2.70;1.70;;;5.40;68.30;;;4.48;55.27;94628.81;6131155;23;20170;-82
2022/02/20 04:52:00;;;;;;;2.05;1.60;;;5.40;68.00;;;4.47;55.33;94622.78;6135594;23;20180;-83
2022/02/20 04:54:47;;;;;;;2.30;1.50;;;5.40;68.20;;;4.51;54.61;94618.06;6115620;23;20201;-82
2022/02/20 04:57:19;;;;;;;2.20;1.58;;;5.40;68.00;;;4.52;54.92;94627.50;6107399;23;20180;-82
2022/02/20 04:59:47;;;;;;;2.75;1.70;;;5.40;68.20;;;4.56;54.65;94628.78;6107048;23;20576;-81
2022/02/20 05:02:14;;;;;;;2.92;1.50;;;5.40;68.00;;;4.58;54.73;94636.44;6107015;23;20177;-83
2022/02/20 05:04:47;;;;;;;2.65;1.65;;;5.40;68.10;;;4.58;54.38;94632.03;6130931;23;20229;-82
2022/02/20 05:07:15;;;;;;;1.60;1.50;;;5.40;68.10;;;4.63;54.17;94629.75;6130757;23;20181;-82
2022/02/20 05:09:43;;;;;;;2.00;1.45;;;5.40;68.00;;;4.65;53.76;94632.19;6106837;23;20248;-82
2022/02/20 05:12:10;;;;;;;2.03;1.55;;;5.40;67.70;;;4.65;54.95;94617.44;6130054;23;20264;-82
2022/02/20 05:14:37;;;;;;;3.50;1.80;;;5.40;68.00;;;4.68;54.93;94631.09;6106348;23;20268;-82
2022/02/20 05:17:37;;;;;;;1.85;1.35;;;5.50;68.20;;;4.70;54.90;94629.94;6126608;23;20490;-81
2022/02/20 05:20:08;;;;;;;2.10;1.48;;;5.50;68.30;;;4.73;54.51;94631.41;6130655;23;20659;-81
2022/02/20 05:22:36;;;;;;;1.50;1.40;;;5.50;68.20;;;4.74;54.07;94635.63;6106562;23;20264;-81
2022/02/20 05:25:08;;;;;;;1.77;1.38;;;5.50;68.00;;;4.76;54.59;94626.69;6107304;23;20280;-81
2022/02/20 05:27:36;;;;;;;2.17;1.42;;;5.50;68.30;;;4.78;53.96;94619.53;6130614;23;20177;-82
2022/02/20 05:30:05;;;;;;;1.63;1.40;;;5.50;68.00;;;4.79;54.27;94626.34;6106856;23;20569;-82
2022/02/20 05:32:35;;;;;;;3.00;1.70;;;5.50;68.10;;;4.80;54.53;94609.78;6106832;23;20177;-82
2022/02/20 05:35:10;;;;;;;1.60;1.50;;;5.60;69.10;;;4.84;54.83;94620.66;6107040;23;20203;-81
2022/02/20 05:37:46;;;;;;;1.50;1.40;;;5.60;68.20;;;4.86;54.04;94623.09;6130555;23;20683;-82
2022/02/20 05:40:19;;;;;;;1.65;1.40;;;5.60;68.10;;;4.87;53.64;94609.13;6106553;23;20193;-82
2022/02/20 05:43:10;;;;;;;1.35;1.25;;;5.60;68.00;;;4.86;54.32;94608.34;6110429;23;20165;-81
2022/02/20 05:45:37;;;;;;;1.92;1.50;;;5.70;68.10;;;4.86;54.55;94612.69;6082634;23;20211;-82
2022/02/20 05:48:17;;;;;;;1.60;1.50;;;5.70;68.10;;;4.80;55.52;94612.38;6131103;23;20252;-82
2022/02/20 05:51:10;;;;;;;1.92;1.20;;;5.70;68.40;;;4.79;55.53;94618.56;6130522;23;20487;-81
2022/02/20 05:53:46;;;;;;;1.30;1.23;;;5.70;68.70;;;4.81;55.72;94640.00;6130688;23;20187;-81
2022/02/20 05:56:17;;;;;;;1.27;1.17;;;5.70;68.80;;;4.79;55.36;94605.56;6083341;23;20197;-82
2022/02/20 05:58:53;;;;;;;1.27;1.17;;;5.70;68.70;;;4.88;56.45;94619.38;6129627;23;20169;-81
2022/02/20 06:01:21;;;;;;;1.60;1.20;;;5.70;69.30;;;4.90;55.71;94640.81;6105652;23;20252;-83
2022/02/20 06:03:58;;;;;;;1.58;1.40;;;5.70;69.20;;;4.95;55.88;94642.91;6108210;23;20173;-81
2022/02/20 06:06:37;;;;;;;1.40;1.30;;;5.70;69.00;;;4.99;54.98;94620.81;6118891;23;20205;-82
2022/02/20 06:09:23;;;;;;;1.58;1.40;;;5.70;68.80;;;4.97;56.25;94631.38;6134424;23;20200;-82
2022/02/20 06:11:59;;;;;;;1.85;1.40;;;5.80;69.20;;;5.03;55.98;94631.69;6130397;23;20639;-82
2022/02/20 06:14:35;;;;;;;2.50;1.10;;;5.80;69.20;;;5.07;55.79;94625.22;6154801;23;20192;-82
2022/02/20 06:17:35;;;;;;;1.60;1.23;;;5.80;69.20;;;5.12;55.11;94622.91;6078930;23;20177;-81
2022/02/20 06:20:10;;;;;;;2.17;1.20;;;5.80;68.90;;;5.12;55.47;94633.31;6130278;23;20192;-82
2022/02/20 06:22:48;;;;;;;1.00;1.00;;;5.90;69.10;;;5.16;54.85;94632.00;6108132;23;20178;-82
2022/02/20 06:25:30;;;;;;;2.28;1.00;;;5.90;68.90;;;5.20;55.32;94629.88;6108975;23;20212;-82
2022/02/20 06:28:06;;;;;;;1.40;1.30;;;6.00;69.00;;;5.23;56.18;94630.38;6109741;23;20643;-82
2022/02/20 06:30:33;;;;;;;0.82;0.80;;;6.00;69.50;;;5.25;56.01;94638.81;6082359;23;20204;-82
2022/02/20 06:33:01;;;;;;;1.02;1.00;;;6.00;69.40;;;5.31;55.73;94646.94;6106194;23;20185;-82
2022/02/20 06:35:30;;;;;;;1.50;1.27;;;6.00;69.40;;;5.33;56.03;94653.59;6130850;23;20628;-82
2022/02/20 06:37:57;;;;;;;1.05;1.00;;;6.00;69.60;;;5.38;55.55;94640.09;6105763;23;20177;-81
2022/02/20 06:40:24;;;;;;;1.00;1.00;;;6.10;69.50;;;5.42;55.53;94644.78;6104740;23;20640;-81
2022/02/20 06:42:54;;;;;;;1.08;1.08;;;6.10;69.30;;;5.46;55.98;94629.66;6083066;23;20254;-82
2022/02/20 06:45:24;;;;;;;1.65;1.30;;;6.10;69.50;;;5.49;55.62;94637.13;6129785;23;20205;-82
2022/02/20 06:48:06;;;;;;;1.70;1.27;;;6.20;69.60;;;5.52;55.73;94670.63;6087613;23;20213;-82
2022/02/20 06:50:55;;;;;;;1.20;1.10;;;6.20;69.60;;;5.50;56.27;94617.16;6110193;23;20244;-82
2022/02/20 06:53:48;;;;;;;1.25;1.15;;;6.20;69.70;;;5.58;55.86;94633.53;6102090;23;20633;-82
2022/02/20 06:56:36;;;;;;;1.00;1.00;;;6.30;69.60;;;5.60;55.96;94643.75;6133676;23;20185;-82
2022/02/20 06:59:03;;;;;;;1.00;1.00;;;6.30;69.60;;;5.65;55.73;94623.28;6130119;23;20173;-81
2022/02/20 07:01:30;;;;;;;1.20;1.10;;;6.40;69.60;;;5.69;55.43;94639.34;6129732;23;20512;-82
2022/02/20 07:03:57;;;;;;;1.00;1.00;;;6.40;69.50;;;5.71;55.90;94648.63;6129486;23;20173;-82
2022/02/20 07:06:24;;;;;;;1.13;1.10;;;6.50;69.80;;;5.77;55.91;94667.94;6129824;23;20198;-82
2022/02/20 07:08:54;;;;;;;1.30;1.20;;;6.40;69.70;;;5.82;56.28;94649.22;6105467;23;20596;-82
2022/02/20 07:11:21;;;;;;;1.20;1.10;;;6.50;69.80;;;5.84;55.82;94655.09;6105015;23;20276;-82
2022/02/20 07:13:49;;;;;;;1.05;1.05;;;6.50;69.80;;;5.88;56.08;94669.38;6105698;23;20507;-82
2022/02/20 07:16:16;;;;;;;1.02;1.02;;;6.50;70.00;;;5.90;55.58;94664.81;6129875;23;20221;-82
2022/02/20 07:18:45;;;;;;;1.35;1.10;;;6.50;69.80;;;5.95;55.58;94687.75;6104978;23;20684;-82
2022/02/20 07:21:12;;;;;;;1.30;1.20;;;6.60;69.80;;;5.99;55.74;94665.63;6129372;23;20197;-82
2022/02/20 07:23:39;;;;;;;2.05;1.00;;;6.60;69.90;;;6.02;55.36;94686.91;6105464;23;20660;-82
2022/02/20 07:26:06;;;;;;;1.20;1.02;;;6.60;69.80;;;6.08;55.26;94690.66;6081314;23;20292;-82
2022/02/20 07:28:34;;;;;;;1.20;1.10;;;6.70;70.60;;;6.09;55.02;94684.44;6105679;23;20192;-82
2022/02/20 07:31:02;;;;;;;1.30;1.20;;;6.70;69.70;;;6.13;55.47;94692.72;6105748;23;20193;-83
2022/02/20 07:33:29;;;;;;;1.10;1.00;;;6.80;70.00;;;6.20;55.33;94691.06;6105374;23;20178;-83
2022/02/20 07:35:56;;;;;;;1.27;0.88;;;6.80;69.70;;;6.29;54.36;94694.47;6105312;23;20663;-81
2022/02/20 07:38:24;;;;;;;1.48;1.20;;;6.80;69.40;;;6.30;54.70;94706.47;6129301;23;20178;-82
2022/02/20 07:40:51;;;;;;;2.15;1.33;;;6.90;69.60;;;6.34;54.70;94699.97;6104919;23;20220;-82
2022/02/20 07:43:18;;;;;;;1.13;1.00;;;6.90;69.40;;;6.37;54.64;94710.88;6129706;23;20173;-82
2022/02/20 07:45:46;;;;;;;2.00;1.35;;;6.90;69.40;;;6.41;54.46;94700.91;6105607;23;20202;-82
2022/02/20 07:48:14;;;;;;;1.38;1.20;;;7.00;69.30;;;6.45;54.57;94704.00;6105082;23;20663;-82
2022/02/20 07:50:44;;;;;;;2.40;1.17;;;7.00;69.20;;;6.49;54.66;94695.63;6129740;23;20667;-82
2022/02/20 07:53:11;;;;;;;1.92;1.30;;;7.10;69.30;;;6.51;54.34;94696.28;6105181;23;20181;-83
2022/02/20 07:55:39;;;;;;;1.77;1.40;;;7.10;69.20;;;6.61;54.00;94703.88;6129826;23;20256;-82
2022/02/20 07:58:10;;;;;;;2.03;1.50;;;7.10;69.00;;;6.56;54.31;94714.81;6105394;23;20177;-82
2022/02/20 08:00:37;;;;;;;1.45;1.30;;;7.20;69.10;;;6.63;54.03;94709.75;6129447;23;20201;-82
2022/02/20 08:03:05;;;;;;;1.67;1.40;;;7.30;69.10;;;6.68;53.80;94710.03;6081321;23;20325;-82
2022/02/20 08:05:32;;;;;;;1.77;1.23;;;7.30;69.00;;;6.71;53.29;94699.28;6128860;23;20193;-83
2022/02/20 08:07:59;;;;;;;4.57;1.50;;;7.30;69.00;;;6.76;53.68;94703.94;6105127;23;20185;-82
2022/02/20 08:10:26;;;;;;;3.10;1.50;;;7.40;68.90;;;6.77;53.64;94708.19;6128805;23;20201;-82
2022/02/20 08:12:56;;;;;;;1.50;1.40;;;7.40;69.00;;;6.84;53.48;94711.72;6104914;23;20639;-82
2022/02/20 08:15:24;;;;;;;2.38;1.40;;;7.40;68.90;;;6.92;53.10;94704.81;6129129;23;20195;-82
2022/02/20 08:17:51;;;;;;;3.97;1.60;;;7.40;68.80;;;6.96;53.24;94717.34;6129283;23;20186;-82
2022/02/20 08:20:18;;;;;;;3.97;1.60;;;7.50;68.80;;;7.00;52.82;94704.78;6105092;23;20201;-82
2022/02/20 08:22:46;;;;;;;2.75;1.50;;;7.50;68.80;;;7.04;53.06;94716.47;6105315;23;20181;-83
2022/02/20 08:25:14;;;;;;;3.75;1.60;;;7.50;68.70;;;7.10;53.12;94718.38;6105119;23;20217;-83
2022/02/20 08:27:45;;;;;;;4.13;1.90;;;7.60;68.60;;;7.18;52.81;94715.69;6106006;23;20178;-83
2022/02/20 08:30:14;;;;;;;3.83;1.67;;;7.60;68.60;;;7.31;52.56;94717.72;6105580;23;20197;-83
2022/02/20 08:32:41;;;;;;;2.60;1.70;;;7.70;68.60;;;7.37;52.16;94708.38;6081082;23;20213;-83
2022/02/20 08:35:11;;;;;;;2.55;1.70;;;7.70;68.50;;;7.48;52.18;94692.31;6105543;23;20263;-82
2022/02/20 08:37:43;;;;;;;1.58;1.48;;;7.80;68.40;;;7.56;51.75;94709.66;6105281;23;20680;-83
2022/02/20 08:40:13;;;;;;;4.05;1.70;;;7.90;68.30;;;7.58;51.24;94701.66;6129194;23;20197;-82
2022/02/20 08:42:41;;;;;;;3.80;1.70;;;8.00;68.00;;;7.60;51.15;94699.69;6128232;23;20272;-82
2022/02/20 08:45:09;;;;;;;2.30;1.70;;;8.00;67.90;;;7.62;50.95;94697.72;6153779;23;20236;-82
2022/02/20 08:47:38;;;;;;;3.30;1.83;;;8.00;67.70;;;7.64;50.67;94716.59;6129386;23;20291;-83
2022/02/20 08:50:08;;;;;;;2.42;1.42;;;8.10;67.70;;;7.61;50.81;94717.78;6104893;23;20632;-83
2022/02/20 08:52:37;;;;;;;2.03;1.50;;;8.10;67.50;;;7.67;50.73;94714.44;6104841;23;20252;-83
2022/02/20 08:55:05;;;;;;;2.05;1.20;;;8.20;67.60;;;7.80;50.70;94694.75;6081104;23;20197;-83
2022/02/20 08:57:32;;;;;;;3.08;1.50;;;8.20;67.60;;;7.84;50.49;94707.25;6104546;23;20231;-83
2022/02/20 09:00:01;;;;;;;3.08;1.70;;;8.20;67.50;;;7.88;50.35;94718.16;6104955;23;20633;-82
2022/02/20 09:02:29;;;;;;;3.28;1.48;;;8.30;67.40;;;7.91;49.77;94712.59;6129629;23;20174;-83
2022/02/20 09:04:56;;;;;;;1.95;1.52;;;8.30;67.20;;;7.97;50.09;94706.66;6081618;23;20200;-83
2022/02/20 09:07:23;;;;;;;3.47;1.95;;;8.30;67.20;;;8.00;50.22;94721.94;6105555;23;20201;-82
2022/02/20 09:09:52;;;;;;;3.90;1.70;;;8.40;67.10;;;8.07;49.80;94731.66;6128750;23;20691;-82
2022/02/20 09:12:19;;;;;;;4.20;1.70;;;8.40;66.90;;;8.11;49.80;94725.91;6104671;23;20188;-83
2022/02/20 09:14:48;;;;;;;5.40;1.67;;;8.50;67.00;;;8.14;49.52;94722.13;6128756;23;20218;-83
2022/02/20 09:17:15;;;;;;;2.75;1.67;;;8.50;66.80;;;8.08;49.14;94726.28;6128974;23;20181;-82
2022/02/20 09:19:42;;;;;;;3.47;1.60;;;8.50;66.50;;;8.11;49.09;94719.88;6106928;23;20192;-83
2022/02/20 09:22:10;;;;;;;4.15;1.77;;;8.50;66.50;;;8.22;49.64;94737.69;6106820;23;20181;-83
2022/02/20 09:24:37;;;;;;;4.97;1.67;;;8.60;66.80;;;8.35;49.19;94718.78;6155300;23;20708;-83
2022/02/20 09:27:04;;;;;;;1.65;1.52;;;8.70;66.80;;;8.48;49.40;94724.19;6106415;23;20201;-83
2022/02/20 09:29:33;;;;;;;4.28;1.90;;;8.70;67.10;;;8.62;49.09;94721.72;6106556;23;20284;-82
2022/02/20 09:32:06;;;;;;;2.20;1.63;;;8.80;66.90;;;8.73;48.76;94723.06;6133205;23;20161;-83
2022/02/20 09:34:33;;;;;;;3.67;1.65;;;8.80;66.70;;;8.83;48.70;94707.06;6106854;23;20592;-83
2022/02/20 09:37:01;;;;;;;3.58;1.75;;;9.00;66.70;;;8.92;48.25;94713.78;6131617;23;20181;-83
2022/02/20 09:39:29;;;;;;;2.60;1.50;;;9.10;66.40;;;8.91;48.23;94688.63;6131570;23;20193;-82
2022/02/20 09:42:00;;;;;;;2.53;1.67;;;9.10;66.30;;;9.01;48.23;94706.63;6131872;23;20256;-82
2022/02/20 09:44:27;;;;;;;3.20;2.10;;;9.20;66.20;;;9.04;47.87;94701.81;6106810;23;20583;-82
2022/02/20 09:46:55;;;;;;;2.75;1.80;;;9.30;66.10;;;9.05;47.62;94692.19;6130683;23;20197;-83
2022/02/20 09:49:27;;;;;;;2.75;1.80;;;9.30;65.80;;;9.02;46.91;94723.94;6106335;23;20197;-82
2022/02/20 09:51:57;;;;;;;5.45;1.67;;;9.30;65.20;;;8.90;47.40;94679.16;6106572;23;20174;-83
2022/02/20 09:54:26;;;;;;;3.47;1.50;;;9.30;65.20;;;8.89;47.46;94669.72;6106430;23;20208;-83
2022/02/20 09:56:53;;;;;;;2.72;1.60;;;9.30;65.40;;;8.97;47.36;94701.78;6105895;23;20180;-83
2022/02/20 09:59:21;;;;;;;3.00;1.90;;;9.30;65.30;;;9.01;47.23;94689.13;6106299;23;20264;-81
2022/02/20 10:02:21;;;;;;;3.97;2.03;;;9.40;65.40;;;9.11;47.33;94710.53;6082195;23;20204;-84
2022/02/20 10:04:54;;;;;;;3.75;1.85;;;9.40;65.10;;;9.20;46.93;94708.59;6052623;23;20656;-83
2022/02/20 10:07:33;;;;;;;6.22;1.70;;;9.40;65.40;;;9.28;47.03;94698.00;6106108;23;20209;-82
2022/02/20 10:10:11;;;;;;;4.07;1.70;;;9.40;65.30;;;9.34;46.84;94721.81;6130571;23;20283;-83
2022/02/20 10:12:39;;;;;;;2.47;1.63;;;9.50;65.30;;;9.33;46.74;94720.22;6130257;23;20252;-83
2022/02/20 10:15:32;;;;;;;3.30;1.88;;;9.60;66.20;;;9.32;46.82;94716.75;6106464;23;20193;-82
2022/02/20 10:18:21;;;;;;;2.63;1.60;;;9.60;65.90;;;9.33;47.04;94717.59;6114762;23;20200;-83
2022/02/20 10:21:10;;;;;;;2.58;1.52;;;9.60;65.10;;;9.21;46.79;94707.59;6134414;23;20215;-83
2022/02/20 10:24:09;;;;;;;3.65;1.80;;;9.60;64.90;;;9.17;46.68;94721.25;6134525;23;20188;-84
2022/02/20 10:27:06;;;;;;;3.63;1.77;;;9.60;64.90;;;9.16;47.66;94704.75;6134408;23;20694;-83
2022/02/20 10:29:37;;;;;;;2.70;1.52;;;9.60;65.10;;;9.18;47.19;94728.09;6136607;23;20572;-83
2022/02/20 10:32:04;;;;;;;2.90;1.70;;;9.60;64.90;;;9.20;47.09;94713.03;6130517;23;20605;-83
2022/02/20 10:34:32;;;;;;;3.83;1.80;;;9.60;65.00;;;9.21;46.90;94697.13;6130080;23;20201;-83
2022/02/20 10:37:05;;;;;;;3.95;1.73;;;9.60;65.10;;;9.28;47.10;94698.00;6105877;23;20270;-84
2022/02/20 10:39:40;;;;;;;1.85;1.30;;;9.60;65.20;;;9.35;47.07;94705.09;6130635;23;20440;-83
2022/02/20 10:42:20;;;;;;;2.65;1.60;;;9.60;65.30;;;9.40;46.69;94726.31;6106630;23;20177;-84
2022/02/20 10:44:56;;;;;;;2.85;1.70;;;9.70;64.70;;;9.49;46.84;94714.69;6105873;23;20193;-83
2022/02/20 10:47:24;;;;;;;1.60;1.50;;;9.70;65.00;;;9.50;46.47;94708.44;6154209;23;20255;-83
2022/02/20 10:49:53;;;;;;;3.30;1.50;;;9.80;64.80;;;9.48;46.30;94696.56;6130071;23;20189;-83
2022/02/20 10:52:28;;;;;;;4.80;1.70;;;9.80;65.10;;;9.52;46.57;94723.97;6105562;23;20177;-83